Time;durP1;ratioP1;P1;durP2;ratioP2;P2;SDS_P1;SDS_P2;PMS_P1;PMS_P2;Temp;Humidity;BMP_temperature;BMP_pressure;BME280_temperature;BME280_humidity;BME280_pressure;Samples;Min_cycle;Max_cycle;Signal;HPM_P1;HPM_P2
2023/07/29 00:01:53;;;;;;;7.10;4.47;;;;;;;;;;5078351;28;20198;-63
2023/07/29 00:04:23;;;;;;;5.90;4.45;;;;;;;;;;5081535;28;20202;-63
2023/07/29 00:06:57;;;;;;;5.28;4.57;;;;;;;;;;5086499;28;20232;-64
2023/07/29 00:09:26;;;;;;;8.02;5.47;;;;;;;;;;5076958;28;20628;-68
2023/07/29 00:11:54;;;;;;;8.45;5.53;;;;;;;;;;5086252;28;20224;-65
2023/07/29 00:14:24;;;;;;;6.10;5.32;;;;;;;;;;5076171;28;20205;-64
2023/07/29 00:16:52;;;;;;;10.15;6.07;;;;;;;;;;5075009;28;20225;-63
2023/07/29 00:19:23;;;;;;;6.88;5.90;;;;;;;;;;5074844;28;20206;-62
2023/07/29 00:21:51;;;;;;;7.28;6.38;;;;;;;;;;5079275;28;21564;-63
2023/07/29 00:24:19;;;;;;;9.85;6.70;;;;;;;;;;5081684;28;20201;-63
2023/07/29 00:26:47;;;;;;;8.57;6.30;;;;;;;;;;5084893;28;20686;-63
2023/07/29 00:29:16;;;;;;;7.20;6.32;;;;;;;;;;5077717;28;20231;-64
2023/07/29 00:31:44;;;;;;;8.45;6.10;;;;;;;;;;5076318;28;20623;-64
2023/07/29 00:34:17;;;;;;;8.23;6.18;;;;;;;;;;5079828;28;20221;-63
2023/07/29 00:36:45;;;;;;;7.68;6.88;;;;;;;;;;5081649;28;20241;-63
2023/07/29 00:39:14;;;;;;;7.97;6.72;;;;;;;;;;5079188;28;20277;-64
2023/07/29 00:41:42;;;;;;;7.88;7.05;;;;;;;;;;5074601;28;20201;-63
2023/07/29 00:44:11;;;;;;;9.27;6.97;;;;;;;;;;5079760;28;20209;-63
2023/07/29 00:46:44;;;;;;;9.05;6.40;;;;;;;;;;5078400;28;20231;-63
2023/07/29 00:49:13;;;;;;;7.47;6.43;;;;;;;;;;5075818;28;20220;-63
2023/07/29 00:51:41;;;;;;;10.13;6.15;;;;;;;;;;5076309;28;20703;-63
2023/07/29 00:54:10;;;;;;;6.75;6.10;;;;;;;;;;5080649;28;20209;-63
2023/07/29 00:56:39;;;;;;;8.80;6.20;;;;;;;;;;5077185;28;20232;-64
2023/07/29 00:59:07;;;;;;;6.75;6.07;;;;;;;;;;5079797;28;20238;-63
2023/07/29 01:01:36;;;;;;;6.80;5.95;;;;;;;;;;5073187;28;20206;-63
2023/07/29 01:04:05;;;;;;;7.43;6.25;;;;;;;;;;5076689;28;20256;-63
2023/07/29 01:06:43;;;;;;;8.77;5.65;;;;;;;;;;5077121;28;20210;-63
2023/07/29 01:09:17;;;;;;;7.53;6.68;;;;;;;;;;5082639;28;20228;-63
2023/07/29 01:11:46;;;;;;;6.63;5.88;;;;;;;;;;5076931;28;20637;-63
2023/07/29 01:14:17;;;;;;;8.10;5.60;;;;;;;;;;5074367;28;20679;-63
2023/07/29 01:16:48;;;;;;;6.95;6.00;;;;;;;;;;5073121;28;20332;-63
2023/07/29 01:19:35;;;;;;;7.03;6.07;;;;;;;;;;5080757;28;20228;-63
2023/07/29 01:22:04;;;;;;;6.80;6.20;;;;;;;;;;5084520;28;20204;-63
2023/07/29 01:24:35;;;;;;;6.68;6.05;;;;;;;;;;5077553;28;20209;-62
2023/07/29 01:27:05;;;;;;;5.90;5.40;;;;;;;;;;5072552;28;20483;-63
2023/07/29 01:29:34;;;;;;;7.40;6.57;;;;;;;;;;5081065;28;20227;-63
2023/07/29 01:32:07;;;;;;;7.70;6.65;;;;;;;;;;5068741;28;20255;-64
2023/07/29 01:34:40;;;;;;;7.25;6.38;;;;;;;;;;5076755;28;20623;-63
2023/07/29 01:37:12;;;;;;;9.43;6.78;;;;;;;;;;5079293;28;20240;-61
2023/07/29 01:39:43;;;;;;;7.35;6.43;;;;;;;;;;5078862;28;20197;-62
2023/07/29 01:42:13;;;;;;;6.97;6.28;;;;;;;;;;5082003;28;20229;-62
2023/07/29 01:44:43;;;;;;;7.20;6.20;;;;;;;;;;5073917;28;20216;-62
2023/07/29 01:47:12;;;;;;;6.68;6.07;;;;;;;;;;5088905;28;20789;-63
2023/07/29 01:49:41;;;;;;;8.52;6.50;;;;;;;;;;5078428;28;20202;-62
2023/07/29 01:52:09;;;;;;;8.32;5.93;;;;;;;;;;5082231;28;20216;-64
2023/07/29 01:54:38;;;;;;;6.93;6.20;;;;;;;;;;5083156;28;20454;-63
2023/07/29 01:57:06;;;;;;;7.70;6.40;;;;;;;;;;5087213;28;20281;-66
2023/07/29 01:59:35;;;;;;;7.88;6.75;;;;;;;;;;5089905;28;20266;-63
2023/07/29 02:02:04;;;;;;;10.70;6.45;;;;;;;;;;5088381;28;20202;-62
2023/07/29 02:04:33;;;;;;;6.53;5.93;;;;;;;;;;5091402;28;20210;-62
2023/07/29 02:07:05;;;;;;;6.68;6.07;;;;;;;;;;5089681;28;20234;-66
2023/07/29 02:09:35;;;;;;;7.38;6.30;;;;;;;;;;5092355;28;20216;-63
2023/07/29 02:12:03;;;;;;;7.82;6.78;;;;;;;;;;5083857;28;20268;-62
2023/07/29 02:14:31;;;;;;;9.40;6.40;;;;;;;;;;5097269;28;20205;-62
2023/07/29 02:17:00;;;;;;;7.40;6.20;;;;;;;;;;5088251;28;20344;-63
2023/07/29 02:19:30;;;;;;;6.88;6.20;;;;;;;;;;5086137;28;20198;-64
2023/07/29 02:22:02;;;;;;;7.05;6.35;;;;;;;;;;5084256;28;20202;-61
2023/07/29 02:24:30;;;;;;;7.35;6.32;;;;;;;;;;5080174;28;20261;-61
2023/07/29 02:26:59;;;;;;;9.43;7.32;;;;;;;;;;5081530;28;20225;-63
2023/07/29 02:29:29;;;;;;;8.93;6.75;;;;;;;;;;5082629;28;20205;-66
2023/07/29 02:32:01;;;;;;;7.57;6.80;;;;;;;;;;5085395;28;20201;-67
2023/07/29 02:34:30;;;;;;;10.40;6.78;;;;;;;;;;5085548;28;21001;-63
2023/07/29 02:36:59;;;;;;;8.90;6.30;;;;;;;;;;5082834;28;20227;-64
2023/07/29 02:39:31;;;;;;;8.60;6.88;;;;;;;;;;5084137;28;20224;-64
2023/07/29 02:41:59;;;;;;;7.50;6.50;;;;;;;;;;5086649;28;20201;-63
2023/07/29 02:44:29;;;;;;;7.05;6.22;;;;;;;;;;5080596;28;20201;-62
2023/07/29 02:46:57;;;;;;;11.25;7.40;;;;;;;;;;5082543;28;20289;-64
2023/07/29 02:49:26;;;;;;;9.23;7.38;;;;;;;;;;5078941;28;20201;-64
2023/07/29 02:51:55;;;;;;;8.32;7.32;;;;;;;;;;5079095;28;20207;-62
2023/07/29 02:54:24;;;;;;;11.80;7.38;;;;;;;;;;5075527;28;20228;-64
2023/07/29 02:56:54;;;;;;;11.65;7.90;;;;;;;;;;5075119;28;20245;-62
2023/07/29 02:59:27;;;;;;;9.05;8.02;;;;;;;;;;5077262;28;20193;-64
2023/07/29 03:01:56;;;;;;;9.48;8.50;;;;;;;;;;5078546;28;20236;-64
2023/07/29 03:04:27;;;;;;;9.48;8.48;;;;;;;;;;5080908;28;20194;-64
2023/07/29 03:07:01;;;;;;;9.25;8.07;;;;;;;;;;5081097;28;20291;-63
2023/07/29 03:09:29;;;;;;;9.48;8.35;;;;;;;;;;5077983;28;20207;-63
2023/07/29 03:11:57;;;;;;;8.88;7.68;;;;;;;;;;5085914;28;20209;-63
2023/07/29 03:14:26;;;;;;;7.80;7.00;;;;;;;;;;5080571;28;20226;-62
2023/07/29 03:16:55;;;;;;;10.75;7.80;;;;;;;;;;5074533;28;20231;-64
2023/07/29 03:19:25;;;;;;;7.45;6.75;;;;;;;;;;5075382;28;20589;-63
2023/07/29 03:21:53;;;;;;;8.90;7.63;;;;;;;;;;5074262;28;20194;-63
2023/07/29 03:24:22;;;;;;;10.73;7.13;;;;;;;;;;5097130;22;20259;-62
2023/07/29 03:26:56;;;;;;;8.23;7.20;;;;;;;;;;5092664;28;20319;-64
2023/07/29 03:29:25;;;;;;;8.13;7.32;;;;;;;;;;5091082;28;20674;-63
2023/07/29 03:31:54;;;;;;;8.00;7.20;;;;;;;;;;5096594;28;20201;-63
2023/07/29 03:34:23;;;;;;;10.45;6.70;;;;;;;;;;5091469;28;20212;-64
2023/07/29 03:36:52;;;;;;;10.77;7.40;;;;;;;;;;5097177;28;20254;-63
2023/07/29 03:39:21;;;;;;;9.23;6.85;;;;;;;;;;5096109;28;20205;-63
2023/07/29 03:41:49;;;;;;;8.18;6.97;;;;;;;;;;5088769;28;20622;-63
2023/07/29 03:44:19;;;;;;;7.90;6.85;;;;;;;;;;5106983;27;20221;-62
2023/07/29 03:46:48;;;;;;;8.82;7.70;;;;;;;;;;5092623;28;20477;-62
2023/07/29 03:49:17;;;;;;;8.98;6.65;;;;;;;;;;5090207;28;20674;-64
2023/07/29 03:51:47;;;;;;;8.13;7.22;;;;;;;;;;5098761;28;20436;-63
2023/07/29 03:54:16;;;;;;;8.02;6.80;;;;;;;;;;5091850;28;20205;-63
2023/07/29 03:56:45;;;;;;;8.23;7.05;;;;;;;;;;5094452;28;20306;-64
2023/07/29 03:59:16;;;;;;;7.70;6.40;;;;;;;;;;5099126;28;20247;-63
2023/07/29 04:01:44;;;;;;;9.70;7.00;;;;;;;;;;5096986;28;20197;-63
2023/07/29 04:04:13;;;;;;;7.35;6.65;;;;;;;;;;5093775;28;20291;-63
2023/07/29 04:06:42;;;;;;;8.27;6.93;;;;;;;;;;5097059;28;20205;-63
2023/07/29 04:09:11;;;;;;;9.13;7.15;;;;;;;;;;5097769;28;20233;-63
2023/07/29 04:11:39;;;;;;;10.25;7.05;;;;;;;;;;5096406;28;20208;-63
2023/07/29 04:14:08;;;;;;;8.27;6.70;;;;;;;;;;5093713;28;20197;-63
2023/07/29 04:16:36;;;;;;;8.35;7.43;;;;;;;;;;5093898;28;20237;-64
2023/07/29 04:19:07;;;;;;;11.80;7.70;;;;;;;;;;5094423;28;20202;-63
2023/07/29 04:21:35;;;;;;;8.85;7.20;;;;;;;;;;5096460;28;20224;-62
2023/07/29 04:24:04;;;;;;;9.45;7.05;;;;;;;;;;5092928;28;20205;-62
2023/07/29 04:26:33;;;;;;;9.82;7.72;;;;;;;;;;5110039;27;20678;-64
2023/07/29 04:29:02;;;;;;;8.93;7.07;;;;;;;;;;5092998;28;20216;-62
2023/07/29 04:31:32;;;;;;;9.07;7.05;;;;;;;;;;5094417;28;20197;-63
2023/07/29 04:34:02;;;;;;;8.20;6.60;;;;;;;;;;5092522;28;20205;-63
2023/07/29 04:36:30;;;;;;;6.97;6.28;;;;;;;;;;5092722;28;20707;-63
2023/07/29 04:38:59;;;;;;;10.18;6.70;;;;;;;;;;5092412;28;20217;-63
2023/07/29 04:41:31;;;;;;;10.35;6.30;;;;;;;;;;5091095;28;20272;-64
2023/07/29 04:43:59;;;;;;;7.30;6.57;;;;;;;;;;5094825;28;20211;-63
2023/07/29 04:46:28;;;;;;;11.00;7.00;;;;;;;;;;5097918;28;20208;-62
2023/07/29 04:48:57;;;;;;;8.98;6.38;;;;;;;;;;5094106;28;20192;-67
2023/07/29 04:51:26;;;;;;;7.60;6.15;;;;;;;;;;5106420;28;20204;-67
2023/07/29 04:53:55;;;;;;;7.07;6.38;;;;;;;;;;5103576;28;20197;-63
2023/07/29 04:56:25;;;;;;;8.07;5.80;;;;;;;;;;5096408;28;20275;-67
2023/07/29 04:58:57;;;;;;;7.53;5.70;;;;;;;;;;5100543;28;20205;-64
2023/07/29 05:01:31;;;;;;;8.93;5.65;;;;;;;;;;5098469;28;20213;-65
2023/07/29 05:03:59;;;;;;;8.88;6.00;;;;;;;;;;5100348;28;20193;-63
2023/07/29 05:06:28;;;;;;;6.38;5.07;;;;;;;;;;5104319;28;20718;-61
2023/07/29 05:08:58;;;;;;;8.30;4.95;;;;;;;;;;5098911;28;20212;-62
2023/07/29 05:11:25;;;;;;;5.20;4.70;;;;;;;;;;5094121;28;20267;-63
2023/07/29 05:13:54;;;;;;;5.78;5.28;;;;;;;;;;5096658;28;20205;-63
2023/07/29 05:16:23;;;;;;;5.40;4.90;;;;;;;;;;5097636;28;20233;-62
2023/07/29 05:18:51;;;;;;;6.03;4.70;;;;;;;;;;5094910;28;20232;-62
2023/07/29 05:21:21;;;;;;;5.32;4.82;;;;;;;;;;5096800;28;20204;-62
2023/07/29 05:23:51;;;;;;;5.20;4.60;;;;;;;;;;5093622;28;20215;-63
2023/07/29 05:26:19;;;;;;;4.90;4.50;;;;;;;;;;5098974;28;20306;-67
2023/07/29 05:28:47;;;;;;;5.15;4.63;;;;;;;;;;5095294;28;20229;-63
2023/07/29 05:31:15;;;;;;;5.55;4.47;;;;;;;;;;5091485;28;20209;-64
2023/07/29 05:33:43;;;;;;;5.22;4.60;;;;;;;;;;5092694;28;20208;-63
2023/07/29 05:36:12;;;;;;;5.20;4.70;;;;;;;;;;5096573;28;20361;-64
2023/07/29 05:38:41;;;;;;;5.72;4.32;;;;;;;;;;5097292;28;20594;-65
2023/07/29 05:41:09;;;;;;;5.40;4.85;;;;;;;;;;5095823;28;20216;-63
2023/07/29 05:43:42;;;;;;;5.25;4.53;;;;;;;;;;5094033;28;20236;-62
2023/07/29 05:46:12;;;;;;;4.72;4.32;;;;;;;;;;5091651;28;20663;-62
2023/07/29 05:48:43;;;;;;;7.40;4.68;;;;;;;;;;5096666;28;20220;-63
2023/07/29 05:51:14;;;;;;;7.70;4.72;;;;;;;;;;5095231;28;20197;-63
2023/07/29 05:53:42;;;;;;;4.93;4.53;;;;;;;;;;5098356;28;20211;-63
2023/07/29 05:56:10;;;;;;;5.03;4.45;;;;;;;;;;5091578;28;20215;-63
2023/07/29 05:58:42;;;;;;;5.88;4.65;;;;;;;;;;5095688;28;20233;-63
2023/07/29 06:01:10;;;;;;;4.95;4.25;;;;;;;;;;5100153;28;20597;-63
2023/07/29 06:03:39;;;;;;;7.05;3.72;;;;;;;;;;5092298;28;20290;-64
2023/07/29 06:06:11;;;;;;;4.45;3.80;;;;;;;;;;5099958;28;20197;-64
2023/07/29 06:08:42;;;;;;;4.07;3.67;;;;;;;;;;5091613;28;20220;-63
2023/07/29 06:11:10;;;;;;;4.65;3.50;;;;;;;;;;5091630;28;20204;-66
2023/07/29 06:13:38;;;;;;;4.75;3.47;;;;;;;;;;5091881;28;20212;-65
2023/07/29 06:16:07;;;;;;;5.15;3.60;;;;;;;;;;5090994;28;20176;-63
2023/07/29 06:18:36;;;;;;;3.22;3.03;;;;;;;;;;5091694;28;20242;-64
2023/07/29 06:21:07;;;;;;;5.47;3.10;;;;;;;;;;5093914;28;20197;-63
2023/07/29 06:23:35;;;;;;;3.60;3.30;;;;;;;;;;5097893;28;20209;-63
2023/07/29 06:26:04;;;;;;;3.55;3.25;;;;;;;;;;5097172;28;20238;-63
2023/07/29 06:28:32;;;;;;;5.13;3.53;;;;;;;;;;5092723;28;20217;-62
2023/07/29 06:31:04;;;;;;;4.70;3.65;;;;;;;;;;5098418;28;20228;-63
2023/07/29 06:33:33;;;;;;;4.47;3.67;;;;;;;;;;5092013;28;20300;-62
2023/07/29 06:36:02;;;;;;;5.40;3.80;;;;;;;;;;5092253;28;20259;-66
2023/07/29 06:38:31;;;;;;;4.57;3.88;;;;;;;;;;5092067;28;20227;-63
2023/07/29 06:40:59;;;;;;;5.53;3.83;;;;;;;;;;5090268;28;20200;-63
2023/07/29 06:43:28;;;;;;;3.90;3.53;;;;;;;;;;5090681;28;20221;-63
2023/07/29 06:45:57;;;;;;;4.00;3.63;;;;;;;;;;5092279;28;20255;-62
2023/07/29 06:48:25;;;;;;;4.63;3.60;;;;;;;;;;5091242;28;20307;-66
2023/07/29 06:50:55;;;;;;;5.25;3.75;;;;;;;;;;5094184;28;20656;-63
2023/07/29 06:53:25;;;;;;;4.18;3.75;;;;;;;;;;5100278;28;20220;-63
2023/07/29 06:55:53;;;;;;;4.05;3.65;;;;;;;;;;5097533;28;20284;-63
2023/07/29 06:58:22;;;;;;;6.20;3.63;;;;;;;;;;5093285;28;20233;-64
2023/07/29 07:00:50;;;;;;;5.88;3.72;;;;;;;;;;5090889;28;20194;-65
2023/07/29 07:03:20;;;;;;;4.57;3.50;;;;;;;;;;5090179;28;20772;-64
2023/07/29 07:05:49;;;;;;;4.35;3.92;;;;;;;;;;5094187;28;20209;-67
2023/07/29 07:08:21;;;;;;;5.90;3.40;;;;;;;;;;5097343;28;20232;-63
2023/07/29 07:10:53;;;;;;;3.90;3.50;;;;;;;;;;5099941;28;20213;-64
2023/07/29 07:13:22;;;;;;;3.85;3.55;;;;;;;;;;5094803;28;20201;-63
2023/07/29 07:15:51;;;;;;;5.30;3.83;;;;;;;;;;5101400;28;20208;-63
2023/07/29 07:18:22;;;;;;;5.53;3.95;;;;;;;;;;5092323;28;20715;-62
2023/07/29 07:20:52;;;;;;;4.40;4.00;;;;;;;;;;5104964;28;20197;-63
2023/07/29 07:23:21;;;;;;;3.97;3.67;;;;;;;;;;5103728;28;20194;-63
2023/07/29 07:25:49;;;;;;;3.97;3.15;;;;;;;;;;5102192;28;20201;-68
2023/07/29 07:28:18;;;;;;;4.20;1.70;;;;;;;;;;5102189;28;20221;-64
2023/07/29 07:30:51;;;;;;;2.78;1.73;;;;;;;;;;5098653;28;20219;-63
2023/07/29 07:33:24;;;;;;;3.72;1.80;;;;;;;;;;5102838;28;20309;-64
2023/07/29 07:35:53;;;;;;;1.90;1.80;;;;;;;;;;5105103;28;20279;-63
2023/07/29 07:38:31;;;;;;;1.73;1.60;;;;;;;;;;5099572;28;20253;-64
2023/07/29 07:41:01;;;;;;;2.38;1.70;;;;;;;;;;5099793;28;20211;-62
2023/07/29 07:43:29;;;;;;;2.30;1.40;;;;;;;;;;5101708;28;20299;-63
2023/07/29 07:46:05;;;;;;;3.08;1.70;;;;;;;;;;5115006;28;20292;-62
2023/07/29 07:48:34;;;;;;;1.70;1.33;;;;;;;;;;5102329;28;20231;-64
2023/07/29 07:51:11;;;;;;;2.22;1.70;;;;;;;;;;5104792;28;20231;-64
2023/07/29 07:53:43;;;;;;;2.13;1.60;;;;;;;;;;5101699;28;20280;-62
2023/07/29 07:56:19;;;;;;;1.52;1.42;;;;;;;;;;5090977;28;20204;-66
2023/07/29 07:58:52;;;;;;;1.75;1.65;;;;;;;;;;5094977;28;20288;-64
2023/07/29 08:01:24;;;;;;;1.77;1.63;;;;;;;;;;5089127;28;20206;-62
2023/07/29 08:03:53;;;;;;;1.88;1.48;;;;;;;;;;5089227;28;20268;-63
2023/07/29 08:06:25;;;;;;;3.17;1.70;;;;;;;;;;5089043;28;20202;-63
2023/07/29 08:08:54;;;;;;;2.53;1.63;;;;;;;;;;5096772;28;20227;-62
2023/07/29 08:11:24;;;;;;;2.10;1.90;;;;;;;;;;5079631;28;20196;-62
2023/07/29 08:13:53;;;;;;;2.83;2.13;;;;;;;;;;5092953;28;20236;-64
2023/07/29 08:16:22;;;;;;;2.13;1.88;;;;;;;;;;5091806;28;20735;-63
2023/07/29 08:18:54;;;;;;;3.28;1.98;;;;;;;;;;5096140;28;20558;-62
2023/07/29 08:21:23;;;;;;;6.47;2.22;;;;;;;;;;5096639;28;21574;-62
2023/07/29 08:23:52;;;;;;;2.75;1.90;;;;;;;;;;5094079;28;20209;-62
2023/07/29 08:26:22;;;;;;;4.18;1.80;;;;;;;;;;5098863;28;20202;-63
2023/07/29 08:28:52;;;;;;;8.20;2.10;;;;;;;;;;5090814;28;20232;-63
2023/07/29 08:31:23;;;;;;;4.03;2.05;;;;;;;;;;5083362;28;20209;-63
2023/07/29 08:33:58;;;;;;;5.97;2.13;;;;;;;;;;5090295;28;20205;-66
2023/07/29 08:36:30;;;;;;;8.02;2.17;;;;;;;;;;5088856;28;20231;-63
2023/07/29 08:39:00;;;;;;;2.20;1.88;;;;;;;;;;5088994;28;20249;-65
2023/07/29 08:41:36;;;;;;;5.57;2.15;;;;;;;;;;5093063;28;20273;-64
2023/07/29 08:47:05;;;;;;;3.40;1.95;;;;;;;;;;5093130;28;20225;-64
2023/07/29 08:49:37;;;;;;;2.17;1.98;;;;;;;;;;5096103;28;20193;-63
2023/07/29 08:52:10;;;;;;;2.38;2.17;;;;;;;;;;5094446;28;20200;-64
2023/07/29 08:54:40;;;;;;;1.83;1.73;;;;;;;;;;5094672;28;20201;-63
2023/07/29 08:57:12;;;;;;;2.20;2.00;;;;;;;;;;5100428;28;20315;-62
2023/07/29 08:59:41;;;;;;;1.90;1.80;;;;;;;;;;5090282;28;20647;-63
2023/07/29 09:02:10;;;;;;;2.35;2.15;;;;;;;;;;5089919;28;20201;-63
2023/07/29 09:04:39;;;;;;;3.17;1.98;;;;;;;;;;5096808;28;20246;-64
2023/07/29 09:07:11;;;;;;;4.57;2.22;;;;;;;;;;5089151;28;20220;-64
2023/07/29 09:09:40;;;;;;;2.10;2.00;;;;;;;;;;5090539;28;20220;-63
2023/07/29 09:12:11;;;;;;;4.65;2.25;;;;;;;;;;5110512;28;20208;-63
2023/07/29 09:14:42;;;;;;;2.70;2.50;;;;;;;;;;5095361;28;20205;-64
2023/07/29 09:17:11;;;;;;;2.55;2.28;;;;;;;;;;5096685;28;20233;-63
2023/07/29 09:19:44;;;;;;;2.38;2.28;;;;;;;;;;5093985;28;20287;-64
2023/07/29 09:22:20;;;;;;;2.58;2.30;;;;;;;;;;5094830;28;20210;-63
2023/07/29 09:24:51;;;;;;;3.13;2.40;;;;;;;;;;5103041;28;20262;-67
2023/07/29 09:27:26;;;;;;;3.65;2.40;;;;;;;;;;5098678;28;20233;-63
2023/07/29 09:29:56;;;;;;;3.15;2.47;;;;;;;;;;5093489;28;20203;-63
2023/07/29 09:32:26;;;;;;;2.42;2.20;;;;;;;;;;5096172;28;20268;-62
2023/07/29 09:34:58;;;;;;;3.10;2.42;;;;;;;;;;5090914;28;20225;-63
2023/07/29 09:37:26;;;;;;;2.88;2.40;;;;;;;;;;5098234;28;20242;-66
2023/07/29 09:39:59;;;;;;;3.10;2.17;;;;;;;;;;5099027;28;20246;-63
2023/07/29 09:42:34;;;;;;;2.88;2.50;;;;;;;;;;5096350;28;20206;-63
2023/07/29 09:45:03;;;;;;;4.93;2.05;;;;;;;;;;5095219;28;20197;-63
2023/07/29 09:47:32;;;;;;;5.05;2.30;;;;;;;;;;5096978;28;20224;-64
2023/07/29 09:50:01;;;;;;;2.97;2.60;;;;;;;;;;5099780;28;20221;-64
2023/07/29 09:52:31;;;;;;;3.00;2.47;;;;;;;;;;5091963;28;20201;-63
2023/07/29 09:55:01;;;;;;;3.25;2.47;;;;;;;;;;5093266;28;20209;-68
2023/07/29 09:57:32;;;;;;;4.13;2.40;;;;;;;;;;5099037;28;20225;-63
2023/07/29 10:00:04;;;;;;;7.43;2.75;;;;;;;;;;5098287;28;20212;-64
2023/07/29 10:02:39;;;;;;;7.25;3.30;;;;;;;;;;5092472;28;20197;-65
2023/07/29 10:05:09;;;;;;;4.18;3.00;;;;;;;;;;5087802;28;20217;-64
2023/07/29 10:07:42;;;;;;;3.13;2.80;;;;;;;;;;5096053;28;20660;-63
2023/07/29 10:10:12;;;;;;;6.97;3.10;;;;;;;;;;5096177;28;20209;-64
2023/07/29 10:12:42;;;;;;;3.80;2.75;;;;;;;;;;5091995;28;20209;-64
2023/07/29 10:15:12;;;;;;;2.75;2.35;;;;;;;;;;5090237;28;20196;-63
2023/07/29 10:17:41;;;;;;;3.72;2.67;;;;;;;;;;5087926;28;20312;-64
2023/07/29 10:20:16;;;;;;;4.15;2.63;;;;;;;;;;5086884;28;20212;-63
2023/07/29 10:22:55;;;;;;;3.25;2.95;;;;;;;;;;5089912;28;20262;-63
2023/07/29 10:25:27;;;;;;;3.67;2.80;;;;;;;;;;5091691;28;20207;-65
2023/07/29 10:28:19;;;;;;;2.80;2.60;;;;;;;;;;5089255;28;20228;-64
2023/07/29 10:30:51;;;;;;;3.10;2.90;;;;;;;;;;5088643;28;20214;-64
2023/07/29 10:33:21;;;;;;;6.75;3.15;;;;;;;;;;5092442;28;20219;-62
2023/07/29 10:35:51;;;;;;;2.70;2.50;;;;;;;;;;5093077;28;20756;-63
2023/07/29 10:38:22;;;;;;;3.15;2.95;;;;;;;;;;5096390;28;20233;-63
2023/07/29 10:40:56;;;;;;;3.38;3.08;;;;;;;;;;5090552;28;20232;-63
2023/07/29 10:43:35;;;;;;;3.10;2.65;;;;;;;;;;5089981;28;20245;-64
2023/07/29 10:46:24;;;;;;;2.90;2.63;;;;;;;;;;5096208;28;20196;-63
2023/07/29 10:49:00;;;;;;;3.40;2.60;;;;;;;;;;5098706;28;20224;-63
2023/07/29 10:51:46;;;;;;;2.75;2.60;;;;;;;;;;5092444;28;20232;-64
2023/07/29 10:54:21;;;;;;;3.45;2.90;;;;;;;;;;5092883;28;20213;-63
2023/07/29 10:56:50;;;;;;;2.75;2.50;;;;;;;;;;5095604;28;20228;-62
2023/07/29 10:59:19;;;;;;;5.63;2.97;;;;;;;;;;5092403;28;20220;-64
2023/07/29 11:02:13;;;;;;;2.78;2.50;;;;;;;;;;5102790;28;20223;-63
2023/07/29 11:04:52;;;;;;;5.95;2.92;;;;;;;;;;5065579;28;20221;-62
2023/07/29 11:07:27;;;;;;;2.90;2.28;;;;;;;;;;5097064;28;20221;-64
2023/07/29 11:10:08;;;;;;;3.05;2.42;;;;;;;;;;5095599;28;20203;-63
2023/07/29 11:12:38;;;;;;;2.75;2.55;;;;;;;;;;5108594;28;20196;-64
2023/07/29 11:15:06;;;;;;;3.15;2.83;;;;;;;;;;5092629;28;20193;-63
2023/07/29 11:17:35;;;;;;;2.63;2.42;;;;;;;;;;5091769;28;20217;-63
2023/07/29 11:20:09;;;;;;;2.65;2.45;;;;;;;;;;5090585;28;20205;-64
2023/07/29 11:22:41;;;;;;;3.88;2.40;;;;;;;;;;5091735;28;20223;-63
2023/07/29 11:25:12;;;;;;;2.45;2.20;;;;;;;;;;5095355;28;20239;-63
2023/07/29 11:27:44;;;;;;;3.63;2.30;;;;;;;;;;5100422;28;20221;-61
2023/07/29 11:30:17;;;;;;;5.03;2.75;;;;;;;;;;5094885;28;20296;-63
2023/07/29 11:32:46;;;;;;;2.45;2.22;;;;;;;;;;5096001;28;20219;-64
2023/07/29 11:35:17;;;;;;;2.80;2.33;;;;;;;;;;5089343;28;20277;-63
2023/07/29 11:37:47;;;;;;;2.50;2.40;;;;;;;;;;5098913;28;20238;-65
2023/07/29 11:40:18;;;;;;;2.40;2.20;;;;;;;;;;5102088;28;20224;-63
2023/07/29 11:42:50;;;;;;;2.50;2.30;;;;;;;;;;5098695;28;20740;-63
2023/07/29 11:45:20;;;;;;;4.90;2.20;;;;;;;;;;5099071;28;20200;-65
2023/07/29 11:47:52;;;;;;;2.13;2.00;;;;;;;;;;5096522;28;20228;-65
2023/07/29 11:50:20;;;;;;;2.20;2.10;;;;;;;;;;5099700;28;20220;-65
2023/07/29 11:52:53;;;;;;;4.55;2.35;;;;;;;;;;5092689;28;20419;-64
2023/07/29 11:55:22;;;;;;;2.92;2.15;;;;;;;;;;5096860;28;20201;-63
2023/07/29 11:57:54;;;;;;;2.45;2.25;;;;;;;;;;5098796;28;20233;-64
2023/07/29 12:00:23;;;;;;;2.30;2.10;;;;;;;;;;5108419;28;20193;-64
2023/07/29 12:02:53;;;;;;;2.42;2.22;;;;;;;;;;5094620;28;20200;-64
2023/07/29 12:05:24;;;;;;;2.42;2.22;;;;;;;;;;5095428;28;20200;-64
2023/07/29 12:07:53;;;;;;;2.35;2.22;;;;;;;;;;5094032;28;20221;-64
2023/07/29 12:10:22;;;;;;;2.17;2.08;;;;;;;;;;5093646;28;20214;-64
2023/07/29 12:12:52;;;;;;;3.22;2.00;;;;;;;;;;5092475;28;20239;-64
2023/07/29 12:15:28;;;;;;;2.55;2.20;;;;;;;;;;5096777;28;20622;-65
2023/07/29 12:17:58;;;;;;;2.63;2.42;;;;;;;;;;5097167;28;20311;-64
2023/07/29 12:20:35;;;;;;;2.42;2.22;;;;;;;;;;5093434;28;20451;-65
2023/07/29 12:23:10;;;;;;;3.40;3.13;;;;;;;;;;5092617;28;20700;-67
2023/07/29 12:25:39;;;;;;;2.75;2.55;;;;;;;;;;5100160;28;20211;-65
2023/07/29 12:28:08;;;;;;;5.00;4.53;;;;;;;;;;5097706;28;20260;-65
2023/07/29 12:30:44;;;;;;;2.15;1.98;;;;;;;;;;5095617;28;20213;-65
2023/07/29 12:33:30;;;;;;;3.53;2.30;;;;;;;;;;5091202;28;20771;-64
2023/07/29 12:36:02;;;;;;;1.95;1.85;;;;;;;;;;5093893;28;20269;-62
2023/07/29 12:38:34;;;;;;;2.17;1.98;;;;;;;;;;5098026;28;20278;-64
2023/07/29 12:41:06;;;;;;;2.22;2.13;;;;;;;;;;5092452;28;20198;-63
2023/07/29 12:43:36;;;;;;;2.17;2.00;;;;;;;;;;5095897;28;20206;-63
2023/07/29 12:46:07;;;;;;;2.40;2.17;;;;;;;;;;5098320;28;20430;-63
2023/07/29 12:48:36;;;;;;;2.15;2.03;;;;;;;;;;5096787;28;20236;-65
2023/07/29 12:51:14;;;;;;;3.08;2.20;;;;;;;;;;5097920;28;20208;-63
2023/07/29 12:53:47;;;;;;;3.28;2.00;;;;;;;;;;5093542;28;20205;-64
2023/07/29 12:56:21;;;;;;;2.42;2.22;;;;;;;;;;5096206;28;20227;-62
2023/07/29 12:58:52;;;;;;;2.15;1.90;;;;;;;;;;5099512;28;20232;-64
2023/07/29 13:01:24;;;;;;;2.17;1.98;;;;;;;;;;5097777;28;20270;-64
2023/07/29 13:03:54;;;;;;;2.47;2.05;;;;;;;;;;5097680;28;20206;-66
2023/07/29 13:06:26;;;;;;;3.15;2.20;;;;;;;;;;5094369;28;20200;-64
2023/07/29 13:09:00;;;;;;;2.05;1.95;;;;;;;;;;5092126;28;20196;-65
2023/07/29 13:11:32;;;;;;;2.22;2.13;;;;;;;;;;5094699;28;20197;-68
2023/07/29 13:14:01;;;;;;;2.38;2.20;;;;;;;;;;5102567;28;20227;-65
2023/07/29 13:16:35;;;;;;;2.05;1.90;;;;;;;;;;5101440;28;20205;-68
2023/07/29 13:19:05;;;;;;;2.35;2.25;;;;;;;;;;5096848;28;20232;-64
2023/07/29 13:21:34;;;;;;;2.22;1.98;;;;;;;;;;5095360;28;20201;-63
2023/07/29 13:24:03;;;;;;;2.10;2.00;;;;;;;;;;5097075;28;20192;-64
2023/07/29 13:26:32;;;;;;;2.28;2.13;;;;;;;;;;5099575;28;20189;-66
2023/07/29 13:29:01;;;;;;;2.05;1.95;;;;;;;;;;5104012;28;20209;-66
2023/07/29 13:31:30;;;;;;;2.50;2.30;;;;;;;;;;5095584;28;20204;-63
2023/07/29 13:33:59;;;;;;;2.30;2.05;;;;;;;;;;5090523;28;20262;-65
2023/07/29 13:36:28;;;;;;;2.50;2.30;;;;;;;;;;5101365;28;20205;-64
2023/07/29 13:38:56;;;;;;;2.75;2.55;;;;;;;;;;5093810;28;20235;-64
2023/07/29 13:41:28;;;;;;;2.88;2.30;;;;;;;;;;5099293;28;20197;-65
2023/07/29 13:43:57;;;;;;;2.47;2.25;;;;;;;;;;5096441;28;20225;-65
2023/07/29 13:46:26;;;;;;;2.40;2.20;;;;;;;;;;5097182;28;20211;-65
2023/07/29 13:48:55;;;;;;;2.78;2.58;;;;;;;;;;5098972;28;20339;-64
2023/07/29 13:51:28;;;;;;;2.47;2.28;;;;;;;;;;5095045;28;20208;-64
2023/07/29 13:53:57;;;;;;;2.53;2.25;;;;;;;;;;5097297;28;20193;-65
2023/07/29 13:56:25;;;;;;;2.67;2.47;;;;;;;;;;5099551;28;20205;-64
2023/07/29 13:58:54;;;;;;;2.40;2.20;;;;;;;;;;5097391;28;20221;-64
2023/07/29 14:01:26;;;;;;;2.50;2.30;;;;;;;;;;5093226;28;20200;-64
2023/07/29 14:03:54;;;;;;;2.60;2.40;;;;;;;;;;5095568;28;20215;-64
2023/07/29 14:06:27;;;;;;;2.90;2.28;;;;;;;;;;5089919;28;20288;-66
2023/07/29 14:09:13;;;;;;;3.28;2.50;;;;;;;;;;5096095;28;20209;-64
2023/07/29 14:11:41;;;;;;;2.60;2.40;;;;;;;;;;5091885;28;20255;-63
2023/07/29 14:14:10;;;;;;;2.70;2.50;;;;;;;;;;5093533;28;20213;-64
2023/07/29 14:16:40;;;;;;;3.70;3.40;;;;;;;;;;5083554;28;20209;-67
2023/07/29 14:19:10;;;;;;;2.60;2.40;;;;;;;;;;5093305;28;20235;-64
2023/07/29 14:21:39;;;;;;;3.03;2.70;;;;;;;;;;5093202;28;20202;-62
2023/07/29 14:24:07;;;;;;;3.83;3.53;;;;;;;;;;5087936;28;20272;-69
2023/07/29 14:26:39;;;;;;;3.63;3.33;;;;;;;;;;5083930;28;20231;-61
2023/07/29 14:29:08;;;;;;;3.78;3.35;;;;;;;;;;5087131;28;20196;-63
2023/07/29 14:31:46;;;;;;;2.40;2.20;;;;;;;;;;5088093;28;20267;-68
2023/07/29 14:34:15;;;;;;;2.60;2.40;;;;;;;;;;5090455;28;21775;-63
2023/07/29 14:36:44;;;;;;;3.00;2.70;;;;;;;;;;5083865;28;20215;-64
2023/07/29 14:39:13;;;;;;;3.25;2.47;;;;;;;;;;5087164;28;20229;-64
2023/07/29 14:41:41;;;;;;;2.92;2.65;;;;;;;;;;5090191;28;20603;-63
2023/07/29 14:44:10;;;;;;;2.28;2.00;;;;;;;;;;5091961;28;20229;-64
2023/07/29 14:46:39;;;;;;;2.53;2.30;;;;;;;;;;5091010;28;20205;-63
2023/07/29 14:49:12;;;;;;;2.35;2.15;;;;;;;;;;5093563;28;20208;-64
2023/07/29 14:51:42;;;;;;;4.38;2.50;;;;;;;;;;5095013;28;20233;-63
2023/07/29 14:54:12;;;;;;;2.60;2.40;;;;;;;;;;5091801;28;20231;-64
2023/07/29 14:56:40;;;;;;;3.13;2.60;;;;;;;;;;5092015;28;20221;-63
2023/07/29 14:59:10;;;;;;;3.50;3.03;;;;;;;;;;5092521;28;20228;-64
2023/07/29 15:01:39;;;;;;;2.55;1.95;;;;;;;;;;5091549;28;20201;-65
2023/07/29 15:04:07;;;;;;;2.85;1.95;;;;;;;;;;5089296;28;20233;-64
2023/07/29 15:06:35;;;;;;;2.75;2.53;;;;;;;;;;5095617;28;20206;-64